sensor_id;sensor_type;location;lat;lon;timestamp;P1;durP1;ratioP1;P2;durP2;ratioP2
9102;SDS011;4587;51.434;6.788;2023-07-31T00:00:38;11.93;;;4.67;;
9102;SDS011;4587;51.434;6.788;2023-07-31T00:03:03;10.43;;;5.07;;
9102;SDS011;4587;51.434;6.788;2023-07-31T00:05:29;10.17;;;4.63;;
9102;SDS011;4587;51.434;6.788;2023-07-31T00:07:54;8.57;;;4.73;;
9102;SDS011;4587;51.434;6.788;2023-07-31T00:10:20;9.77;;;4.77;;
9102;SDS011;4587;51.434;6.788;2023-07-31T00:12:46;10.13;;;5.03;;
9102;SDS011;4587;51.434;6.788;2023-07-31T00:15:13;13.53;;;5.47;;
9102;SDS011;4587;51.434;6.788;2023-07-31T00:17:39;11.97;;;4.70;;
9102;SDS011;4587;51.434;6.788;2023-07-31T00:20:05;10.03;;;4.60;;
9102;SDS011;4587;51.434;6.788;2023-07-31T00:22:31;11.63;;;5.00;;
9102;SDS011;4587;51.434;6.788;2023-07-31T00:24:56;11.20;;;5.03;;
9102;SDS011;4587;51.434;6.788;2023-07-31T00:27:22;10.13;;;4.67;;
9102;SDS011;4587;51.434;6.788;2023-07-31T00:29:48;11.27;;;5.07;;
9102;SDS011;4587;51.434;6.788;2023-07-31T00:32:13;10.80;;;4.70;;
9102;SDS011;4587;51.434;6.788;2023-07-31T00:34:39;10.20;;;5.30;;
9102;SDS011;4587;51.434;6.788;2023-07-31T00:37:05;15.23;;;5.50;;
9102;SDS011;4587;51.434;6.788;2023-07-31T00:39:31;11.90;;;4.43;;
9102;SDS011;4587;51.434;6.788;2023-07-31T00:41:58;9.67;;;4.30;;
9102;SDS011;4587;51.434;6.788;2023-07-31T00:44:24;11.43;;;4.80;;
9102;SDS011;4587;51.434;6.788;2023-07-31T00:46:49;11.57;;;5.27;;
9102;SDS011;4587;51.434;6.788;2023-07-31T00:49:15;15.30;;;5.20;;
9102;SDS011;4587;51.434;6.788;2023-07-31T00:51:41;11.27;;;5.20;;
9102;SDS011;4587;51.434;6.788;2023-07-31T00:54:06;9.60;;;4.70;;
9102;SDS011;4587;51.434;6.788;2023-07-31T00:56:35;13.43;;;5.30;;
9102;SDS011;4587;51.434;6.788;2023-07-31T00:59:01;10.77;;;4.83;;
9102;SDS011;4587;51.434;6.788;2023-07-31T01:01:27;10.60;;;4.97;;
9102;SDS011;4587;51.434;6.788;2023-07-31T01:03:52;15.33;;;4.90;;
9102;SDS011;4587;51.434;6.788;2023-07-31T01:08:58;11.00;;;5.10;;
9102;SDS011;4587;51.434;6.788;2023-07-31T01:11:29;13.80;;;5.47;;
9102;SDS011;4587;51.434;6.788;2023-07-31T01:13:58;10.97;;;4.70;;
9102;SDS011;4587;51.434;6.788;2023-07-31T01:16:25;9.83;;;4.70;;
9102;SDS011;4587;51.434;6.788;2023-07-31T01:18:50;12.47;;;4.70;;
9102;SDS011;4587;51.434;6.788;2023-07-31T01:21:21;10.10;;;4.83;;
9102;SDS011;4587;51.434;6.788;2023-07-31T01:26:38;9.30;;;4.70;;
9102;SDS011;4587;51.434;6.788;2023-07-31T01:29:20;11.37;;;4.63;;
9102;SDS011;4587;51.434;6.788;2023-07-31T01:31:55;12.50;;;4.30;;
9102;SDS011;4587;51.434;6.788;2023-07-31T01:34:24;12.40;;;5.03;;
9102;SDS011;4587;51.434;6.788;2023-07-31T01:36:51;9.90;;;4.40;;
9102;SDS011;4587;51.434;6.788;2023-07-31T01:39:17;13.80;;;4.73;;
9102;SDS011;4587;51.434;6.788;2023-07-31T01:41:45;13.30;;;4.87;;
9102;SDS011;4587;51.434;6.788;2023-07-31T01:44:11;10.23;;;4.30;;
9102;SDS011;4587;51.434;6.788;2023-07-31T01:46:36;10.40;;;4.63;;
9102;SDS011;4587;51.434;6.788;2023-07-31T01:49:02;11.10;;;5.10;;
9102;SDS011;4587;51.434;6.788;2023-07-31T01:51:27;11.67;;;4.50;;
9102;SDS011;4587;51.434;6.788;2023-07-31T01:53:53;12.53;;;4.73;;
9102;SDS011;4587;51.434;6.788;2023-07-31T01:56:18;12.83;;;4.43;;
9102;SDS011;4587;51.434;6.788;2023-07-31T01:58:44;10.67;;;4.93;;
9102;SDS011;4587;51.434;6.788;2023-07-31T02:01:10;10.83;;;5.20;;
9102;SDS011;4587;51.434;6.788;2023-07-31T02:03:35;9.20;;;4.23;;
9102;SDS011;4587;51.434;6.788;2023-07-31T02:06:01;12.13;;;5.03;;
9102;SDS011;4587;51.434;6.788;2023-07-31T02:08:26;7.33;;;4.33;;
9102;SDS011;4587;51.434;6.788;2023-07-31T02:10:52;9.80;;;4.10;;
9102;SDS011;4587;51.434;6.788;2023-07-31T02:13:18;11.60;;;4.77;;
9102;SDS011;4587;51.434;6.788;2023-07-31T02:15:44;8.17;;;4.30;;
9102;SDS011;4587;51.434;6.788;2023-07-31T02:18:10;10.07;;;4.30;;
9102;SDS011;4587;51.434;6.788;2023-07-31T02:20:36;13.30;;;4.90;;
9102;SDS011;4587;51.434;6.788;2023-07-31T02:23:01;14.57;;;4.37;;
9102;SDS011;4587;51.434;6.788;2023-07-31T02:25:27;11.70;;;4.77;;
9102;SDS011;4587;51.434;6.788;2023-07-31T02:27:53;12.57;;;4.63;;
9102;SDS011;4587;51.434;6.788;2023-07-31T02:30:18;10.60;;;4.60;;
9102;SDS011;4587;51.434;6.788;2023-07-31T02:32:44;12.67;;;5.27;;
9102;SDS011;4587;51.434;6.788;2023-07-31T02:35:09;12.37;;;5.37;;
9102;SDS011;4587;51.434;6.788;2023-07-31T02:37:36;10.17;;;4.47;;
9102;SDS011;4587;51.434;6.788;2023-07-31T02:40:01;10.80;;;4.70;;
9102;SDS011;4587;51.434;6.788;2023-07-31T02:42:27;11.40;;;4.67;;
9102;SDS011;4587;51.434;6.788;2023-07-31T02:44:53;14.37;;;5.50;;
9102;SDS011;4587;51.434;6.788;2023-07-31T02:47:21;12.30;;;4.73;;
9102;SDS011;4587;51.434;6.788;2023-07-31T02:49:47;12.20;;;4.90;;
9102;SDS011;4587;51.434;6.788;2023-07-31T02:52:13;11.17;;;4.83;;
9102;SDS011;4587;51.434;6.788;2023-07-31T02:54:38;11.57;;;4.83;;
9102;SDS011;4587;51.434;6.788;2023-07-31T02:57:04;13.60;;;4.43;;
9102;SDS011;4587;51.434;6.788;2023-07-31T02:59:30;10.17;;;5.20;;
9102;SDS011;4587;51.434;6.788;2023-07-31T03:01:56;8.40;;;4.60;;
9102;SDS011;4587;51.434;6.788;2023-07-31T03:04:22;12.53;;;5.13;;
9102;SDS011;4587;51.434;6.788;2023-07-31T03:06:47;10.97;;;5.00;;
9102;SDS011;4587;51.434;6.788;2023-07-31T03:09:13;12.13;;;5.30;;
9102;SDS011;4587;51.434;6.788;2023-07-31T03:11:38;8.90;;;4.80;;
9102;SDS011;4587;51.434;6.788;2023-07-31T03:14:04;14.20;;;5.70;;
9102;SDS011;4587;51.434;6.788;2023-07-31T03:16:29;8.87;;;4.70;;
9102;SDS011;4587;51.434;6.788;2023-07-31T03:18:55;10.93;;;4.80;;
9102;SDS011;4587;51.434;6.788;2023-07-31T03:21:20;9.73;;;4.87;;
9102;SDS011;4587;51.434;6.788;2023-07-31T03:23:46;9.90;;;5.20;;
9102;SDS011;4587;51.434;6.788;2023-07-31T03:26:11;11.60;;;5.00;;
9102;SDS011;4587;51.434;6.788;2023-07-31T03:28:37;13.70;;;5.20;;
9102;SDS011;4587;51.434;6.788;2023-07-31T03:31:02;10.27;;;4.33;;
9102;SDS011;4587;51.434;6.788;2023-07-31T03:33:28;9.77;;;4.70;;
9102;SDS011;4587;51.434;6.788;2023-07-31T03:35:54;12.03;;;4.67;;
9102;SDS011;4587;51.434;6.788;2023-07-31T03:38:20;11.30;;;5.23;;
9102;SDS011;4587;51.434;6.788;2023-07-31T03:40:45;9.83;;;4.33;;
9102;SDS011;4587;51.434;6.788;2023-07-31T03:43:11;10.97;;;4.53;;
9102;SDS011;4587;51.434;6.788;2023-07-31T03:45:37;10.27;;;4.87;;
9102;SDS011;4587;51.434;6.788;2023-07-31T03:48:03;8.20;;;4.37;;
9102;SDS011;4587;51.434;6.788;2023-07-31T03:50:30;11.80;;;4.63;;
9102;SDS011;4587;51.434;6.788;2023-07-31T03:52:55;8.87;;;4.47;;
9102;SDS011;4587;51.434;6.788;2023-07-31T03:55:21;10.03;;;4.40;;
9102;SDS011;4587;51.434;6.788;2023-07-31T03:57:47;10.00;;;5.00;;
9102;SDS011;4587;51.434;6.788;2023-07-31T04:00:13;11.00;;;4.47;;
9102;SDS011;4587;51.434;6.788;2023-07-31T04:02:39;10.47;;;4.53;;
9102;SDS011;4587;51.434;6.788;2023-07-31T04:05:04;11.27;;;4.90;;
9102;SDS011;4587;51.434;6.788;2023-07-31T04:07:31;9.57;;;4.50;;
9102;SDS011;4587;51.434;6.788;2023-07-31T04:09:57;14.07;;;4.70;;
9102;SDS011;4587;51.434;6.788;2023-07-31T04:12:22;10.00;;;4.60;;
9102;SDS011;4587;51.434;6.788;2023-07-31T04:14:48;12.93;;;5.00;;
9102;SDS011;4587;51.434;6.788;2023-07-31T04:17:14;13.00;;;4.90;;
9102;SDS011;4587;51.434;6.788;2023-07-31T04:19:39;12.83;;;4.93;;
9102;SDS011;4587;51.434;6.788;2023-07-31T04:22:05;9.30;;;4.30;;
9102;SDS011;4587;51.434;6.788;2023-07-31T04:24:30;9.70;;;4.60;;
9102;SDS011;4587;51.434;6.788;2023-07-31T04:26:56;10.40;;;4.50;;
9102;SDS011;4587;51.434;6.788;2023-07-31T04:29:21;7.70;;;4.13;;
9102;SDS011;4587;51.434;6.788;2023-07-31T04:31:47;9.47;;;4.87;;
9102;SDS011;4587;51.434;6.788;2023-07-31T04:34:13;11.83;;;4.77;;
9102;SDS011;4587;51.434;6.788;2023-07-31T04:36:38;11.93;;;4.40;;
9102;SDS011;4587;51.434;6.788;2023-07-31T04:39:04;10.80;;;4.40;;
9102;SDS011;4587;51.434;6.788;2023-07-31T04:41:30;8.90;;;4.20;;
9102;SDS011;4587;51.434;6.788;2023-07-31T04:43:55;10.37;;;4.80;;
9102;SDS011;4587;51.434;6.788;2023-07-31T04:46:21;10.30;;;5.20;;
9102;SDS011;4587;51.434;6.788;2023-07-31T04:48:46;11.70;;;5.97;;
9102;SDS011;4587;51.434;6.788;2023-07-31T04:51:12;11.80;;;5.60;;
9102;SDS011;4587;51.434;6.788;2023-07-31T04:53:38;15.00;;;6.60;;
9102;SDS011;4587;51.434;6.788;2023-07-31T04:56:03;15.30;;;5.63;;
9102;SDS011;4587;51.434;6.788;2023-07-31T04:58:29;14.30;;;6.70;;
9102;SDS011;4587;51.434;6.788;2023-07-31T05:00:54;13.80;;;6.33;;
9102;SDS011;4587;51.434;6.788;2023-07-31T05:03:20;13.30;;;6.40;;
9102;SDS011;4587;51.434;6.788;2023-07-31T05:05:45;17.53;;;5.73;;
9102;SDS011;4587;51.434;6.788;2023-07-31T05:08:11;11.27;;;5.67;;
9102;SDS011;4587;51.434;6.788;2023-07-31T05:10:37;10.50;;;5.20;;
9102;SDS011;4587;51.434;6.788;2023-07-31T05:13:02;11.83;;;5.10;;
9102;SDS011;4587;51.434;6.788;2023-07-31T05:15:28;11.03;;;5.03;;
9102;SDS011;4587;51.434;6.788;2023-07-31T05:17:54;14.40;;;5.47;;
9102;SDS011;4587;51.434;6.788;2023-07-31T05:20:20;10.60;;;5.43;;
9102;SDS011;4587;51.434;6.788;2023-07-31T05:22:46;11.70;;;5.90;;
9102;SDS011;4587;51.434;6.788;2023-07-31T05:25:11;12.47;;;5.43;;
9102;SDS011;4587;51.434;6.788;2023-07-31T05:27:37;10.40;;;5.47;;
9102;SDS011;4587;51.434;6.788;2023-07-31T05:30:03;9.57;;;4.80;;
9102;SDS011;4587;51.434;6.788;2023-07-31T05:32:29;9.10;;;4.90;;
9102;SDS011;4587;51.434;6.788;2023-07-31T05:34:54;11.93;;;5.70;;
9102;SDS011;4587;51.434;6.788;2023-07-31T05:37:21;11.27;;;5.73;;
9102;SDS011;4587;51.434;6.788;2023-07-31T05:39:47;13.07;;;5.30;;
9102;SDS011;4587;51.434;6.788;2023-07-31T05:42:13;10.10;;;5.07;;
9102;SDS011;4587;51.434;6.788;2023-07-31T05:44:38;10.77;;;5.23;;
9102;SDS011;4587;51.434;6.788;2023-07-31T05:47:04;10.10;;;5.10;;
9102;SDS011;4587;51.434;6.788;2023-07-31T05:49:30;8.67;;;4.63;;
9102;SDS011;4587;51.434;6.788;2023-07-31T05:51:55;10.47;;;5.17;;
9102;SDS011;4587;51.434;6.788;2023-07-31T05:54:21;9.20;;;5.13;;
9102;SDS011;4587;51.434;6.788;2023-07-31T05:56:46;11.13;;;6.10;;
9102;SDS011;4587;51.434;6.788;2023-07-31T05:59:12;10.60;;;5.90;;
9102;SDS011;4587;51.434;6.788;2023-07-31T06:01:38;11.70;;;6.10;;
9102;SDS011;4587;51.434;6.788;2023-07-31T06:04:04;8.93;;;5.60;;
9102;SDS011;4587;51.434;6.788;2023-07-31T06:06:29;12.87;;;6.33;;
9102;SDS011;4587;51.434;6.788;2023-07-31T06:08:55;11.57;;;6.20;;
9102;SDS011;4587;51.434;6.788;2023-07-31T06:11:21;14.07;;;6.17;;
9102;SDS011;4587;51.434;6.788;2023-07-31T06:13:46;8.50;;;5.97;;
9102;SDS011;4587;51.434;6.788;2023-07-31T06:16:14;15.53;;;6.80;;
9102;SDS011;4587;51.434;6.788;2023-07-31T06:18:40;10.93;;;7.17;;
9102;SDS011;4587;51.434;6.788;2023-07-31T06:21:06;11.53;;;6.70;;
9102;SDS011;4587;51.434;6.788;2023-07-31T06:23:32;13.00;;;7.07;;
9102;SDS011;4587;51.434;6.788;2023-07-31T06:25:57;13.23;;;7.37;;
9102;SDS011;4587;51.434;6.788;2023-07-31T06:28:29;10.20;;;7.33;;
9102;SDS011;4587;51.434;6.788;2023-07-31T06:30:56;12.50;;;7.30;;
9102;SDS011;4587;51.434;6.788;2023-07-31T06:33:22;16.10;;;7.37;;
9102;SDS011;4587;51.434;6.788;2023-07-31T06:35:47;13.60;;;7.90;;
9102;SDS011;4587;51.434;6.788;2023-07-31T06:38:13;15.43;;;8.03;;
9102;SDS011;4587;51.434;6.788;2023-07-31T06:40:38;12.03;;;7.30;;
9102;SDS011;4587;51.434;6.788;2023-07-31T06:43:04;9.77;;;6.87;;
9102;SDS011;4587;51.434;6.788;2023-07-31T06:45:36;11.37;;;7.07;;
9102;SDS011;4587;51.434;6.788;2023-07-31T06:48:02;11.43;;;7.47;;
9102;SDS011;4587;51.434;6.788;2023-07-31T06:50:29;12.60;;;7.37;;
9102;SDS011;4587;51.434;6.788;2023-07-31T06:52:55;14.87;;;7.97;;
9102;SDS011;4587;51.434;6.788;2023-07-31T06:55:21;12.50;;;7.40;;
9102;SDS011;4587;51.434;6.788;2023-07-31T06:57:51;13.20;;;7.57;;
9102;SDS011;4587;51.434;6.788;2023-07-31T07:00:17;11.10;;;6.43;;
9102;SDS011;4587;51.434;6.788;2023-07-31T07:02:44;10.30;;;6.03;;
9102;SDS011;4587;51.434;6.788;2023-07-31T07:05:12;9.67;;;5.93;;
9102;SDS011;4587;51.434;6.788;2023-07-31T07:07:38;14.17;;;7.03;;
9102;SDS011;4587;51.434;6.788;2023-07-31T07:10:04;12.00;;;6.90;;
9102;SDS011;4587;51.434;6.788;2023-07-31T07:12:30;11.23;;;6.53;;
9102;SDS011;4587;51.434;6.788;2023-07-31T07:14:56;10.30;;;6.13;;
9102;SDS011;4587;51.434;6.788;2023-07-31T07:17:25;9.37;;;5.47;;
9102;SDS011;4587;51.434;6.788;2023-07-31T07:19:52;7.57;;;5.13;;
9102;SDS011;4587;51.434;6.788;2023-07-31T07:22:17;9.13;;;5.00;;
9102;SDS011;4587;51.434;6.788;2023-07-31T07:24:43;9.43;;;5.40;;
9102;SDS011;4587;51.434;6.788;2023-07-31T07:27:09;10.40;;;5.40;;
9102;SDS011;4587;51.434;6.788;2023-07-31T07:29:34;11.00;;;6.37;;
9102;SDS011;4587;51.434;6.788;2023-07-31T07:32:00;11.70;;;7.50;;
9102;SDS011;4587;51.434;6.788;2023-07-31T07:34:26;11.07;;;7.70;;
9102;SDS011;4587;51.434;6.788;2023-07-31T07:36:53;13.97;;;8.27;;
9102;SDS011;4587;51.434;6.788;2023-07-31T07:39:19;10.60;;;8.23;;
9102;SDS011;4587;51.434;6.788;2023-07-31T07:41:45;11.23;;;7.57;;
9102;SDS011;4587;51.434;6.788;2023-07-31T07:44:11;10.23;;;6.93;;
9102;SDS011;4587;51.434;6.788;2023-07-31T07:46:36;10.73;;;6.27;;
9102;SDS011;4587;51.434;6.788;2023-07-31T07:49:02;7.77;;;6.20;;
9102;SDS011;4587;51.434;6.788;2023-07-31T07:51:27;10.97;;;6.73;;
9102;SDS011;4587;51.434;6.788;2023-07-31T07:53:55;8.50;;;5.47;;
9102;SDS011;4587;51.434;6.788;2023-07-31T07:56:21;8.97;;;5.07;;
9102;SDS011;4587;51.434;6.788;2023-07-31T07:58:48;5.97;;;4.10;;
9102;SDS011;4587;51.434;6.788;2023-07-31T08:01:15;6.63;;;4.30;;
9102;SDS011;4587;51.434;6.788;2023-07-31T08:03:41;7.43;;;4.50;;
9102;SDS011;4587;51.434;6.788;2023-07-31T08:06:06;8.60;;;4.67;;
9102;SDS011;4587;51.434;6.788;2023-07-31T08:08:34;6.90;;;5.07;;
9102;SDS011;4587;51.434;6.788;2023-07-31T08:11:02;10.37;;;5.50;;
9102;SDS011;4587;51.434;6.788;2023-07-31T08:13:28;9.80;;;6.47;;
9102;SDS011;4587;51.434;6.788;2023-07-31T08:15:54;6.97;;;5.73;;
9102;SDS011;4587;51.434;6.788;2023-07-31T08:18:19;9.10;;;5.57;;
9102;SDS011;4587;51.434;6.788;2023-07-31T08:20:45;10.13;;;5.47;;
9102;SDS011;4587;51.434;6.788;2023-07-31T08:23:11;9.27;;;5.30;;
9102;SDS011;4587;51.434;6.788;2023-07-31T08:25:36;10.83;;;6.43;;
9102;SDS011;4587;51.434;6.788;2023-07-31T08:28:03;11.60;;;5.63;;
9102;SDS011;4587;51.434;6.788;2023-07-31T08:30:29;8.60;;;5.67;;
9102;SDS011;4587;51.434;6.788;2023-07-31T08:32:55;10.10;;;6.67;;
9102;SDS011;4587;51.434;6.788;2023-07-31T08:35:21;10.50;;;5.93;;
9102;SDS011;4587;51.434;6.788;2023-07-31T08:37:47;7.53;;;4.83;;
9102;SDS011;4587;51.434;6.788;2023-07-31T08:40:12;12.07;;;5.93;;
9102;SDS011;4587;51.434;6.788;2023-07-31T08:42:45;8.50;;;5.57;;
9102;SDS011;4587;51.434;6.788;2023-07-31T08:45:15;8.87;;;5.37;;
9102;SDS011;4587;51.434;6.788;2023-07-31T08:47:45;5.40;;;3.93;;
9102;SDS011;4587;51.434;6.788;2023-07-31T08:50:13;6.13;;;3.70;;
9102;SDS011;4587;51.434;6.788;2023-07-31T08:52:39;5.50;;;3.60;;
9102;SDS011;4587;51.434;6.788;2023-07-31T08:55:05;7.33;;;5.07;;
9102;SDS011;4587;51.434;6.788;2023-07-31T08:57:32;8.20;;;4.83;;
9102;SDS011;4587;51.434;6.788;2023-07-31T09:00:01;7.83;;;4.67;;
9102;SDS011;4587;51.434;6.788;2023-07-31T09:02:30;6.67;;;3.80;;
9102;SDS011;4587;51.434;6.788;2023-07-31T09:05:01;6.80;;;3.80;;
9102;SDS011;4587;51.434;6.788;2023-07-31T09:07:28;6.07;;;3.90;;
9102;SDS011;4587;51.434;6.788;2023-07-31T09:09:56;7.07;;;4.33;;
9102;SDS011;4587;51.434;6.788;2023-07-31T09:12:22;7.87;;;6.20;;
9102;SDS011;4587;51.434;6.788;2023-07-31T09:14:48;10.43;;;6.53;;
9102;SDS011;4587;51.434;6.788;2023-07-31T09:17:14;11.27;;;7.33;;
9102;SDS011;4587;51.434;6.788;2023-07-31T09:19:39;11.93;;;7.17;;
9102;SDS011;4587;51.434;6.788;2023-07-31T09:22:05;9.03;;;5.53;;
9102;SDS011;4587;51.434;6.788;2023-07-31T09:24:32;9.63;;;5.70;;
9102;SDS011;4587;51.434;6.788;2023-07-31T09:26:59;10.43;;;5.77;;
9102;SDS011;4587;51.434;6.788;2023-07-31T09:29:26;9.23;;;6.73;;
9102;SDS011;4587;51.434;6.788;2023-07-31T09:31:53;8.93;;;6.60;;
9102;SDS011;4587;51.434;6.788;2023-07-31T09:34:20;9.93;;;7.03;;
9102;SDS011;4587;51.434;6.788;2023-07-31T09:36:53;9.67;;;5.77;;
9102;SDS011;4587;51.434;6.788;2023-07-31T09:39:18;9.03;;;6.13;;
9102;SDS011;4587;51.434;6.788;2023-07-31T09:41:53;8.17;;;5.83;;
9102;SDS011;4587;51.434;6.788;2023-07-31T09:44:20;7.67;;;6.23;;
9102;SDS011;4587;51.434;6.788;2023-07-31T09:46:46;8.80;;;6.63;;
9102;SDS011;4587;51.434;6.788;2023-07-31T09:49:12;7.40;;;5.23;;
9102;SDS011;4587;51.434;6.788;2023-07-31T09:51:40;7.37;;;4.80;;
9102;SDS011;4587;51.434;6.788;2023-07-31T09:56:37;9.80;;;5.50;;
9102;SDS011;4587;51.434;6.788;2023-07-31T09:59:12;6.83;;;5.40;;
9102;SDS011;4587;51.434;6.788;2023-07-31T10:01:41;6.40;;;5.03;;
9102;SDS011;4587;51.434;6.788;2023-07-31T10:04:08;5.87;;;4.57;;
9102;SDS011;4587;51.434;6.788;2023-07-31T10:06:35;8.87;;;5.67;;
9102;SDS011;4587;51.434;6.788;2023-07-31T10:09:08;6.33;;;5.07;;
9102;SDS011;4587;51.434;6.788;2023-07-31T10:11:43;7.70;;;5.17;;
9102;SDS011;4587;51.434;6.788;2023-07-31T10:14:18;6.60;;;4.83;;
9102;SDS011;4587;51.434;6.788;2023-07-31T10:16:45;6.67;;;4.60;;
9102;SDS011;4587;51.434;6.788;2023-07-31T10:19:12;6.13;;;3.90;;
9102;SDS011;4587;51.434;6.788;2023-07-31T10:21:37;4.90;;;3.97;;
9102;SDS011;4587;51.434;6.788;2023-07-31T10:24:03;5.53;;;4.20;;
9102;SDS011;4587;51.434;6.788;2023-07-31T10:26:30;5.53;;;4.00;;
9102;SDS011;4587;51.434;6.788;2023-07-31T10:28:57;5.40;;;4.10;;
9102;SDS011;4587;51.434;6.788;2023-07-31T10:31:23;5.67;;;3.63;;
9102;SDS011;4587;51.434;6.788;2023-07-31T10:33:50;4.40;;;3.50;;
9102;SDS011;4587;51.434;6.788;2023-07-31T10:36:18;4.67;;;3.57;;
9102;SDS011;4587;51.434;6.788;2023-07-31T10:38:44;4.00;;;3.27;;
9102;SDS011;4587;51.434;6.788;2023-07-31T10:41:10;5.30;;;3.50;;
9102;SDS011;4587;51.434;6.788;2023-07-31T10:43:39;4.37;;;3.50;;
9102;SDS011;4587;51.434;6.788;2023-07-31T10:46:14;8.80;;;3.13;;
9102;SDS011;4587;51.434;6.788;2023-07-31T10:48:40;4.50;;;3.33;;
9102;SDS011;4587;51.434;6.788;2023-07-31T10:51:09;6.30;;;3.20;;
9102;SDS011;4587;51.434;6.788;2023-07-31T10:53:37;4.70;;;3.10;;
9102;SDS011;4587;51.434;6.788;2023-07-31T10:56:05;5.97;;;3.50;;
9102;SDS011;4587;51.434;6.788;2023-07-31T10:58:32;4.63;;;3.13;;
9102;SDS011;4587;51.434;6.788;2023-07-31T11:00:59;4.63;;;3.30;;
9102;SDS011;4587;51.434;6.788;2023-07-31T11:03:26;5.87;;;3.10;;
9102;SDS011;4587;51.434;6.788;2023-07-31T11:06:06;7.40;;;3.80;;
9102;SDS011;4587;51.434;6.788;2023-07-31T11:08:32;8.13;;;3.43;;
9102;SDS011;4587;51.434;6.788;2023-07-31T11:13:28;6.40;;;3.23;;
9102;SDS011;4587;51.434;6.788;2023-07-31T11:15:54;6.70;;;3.93;;
9102;SDS011;4587;51.434;6.788;2023-07-31T11:18:20;4.87;;;3.63;;
9102;SDS011;4587;51.434;6.788;2023-07-31T11:20:45;7.70;;;3.60;;
9102;SDS011;4587;51.434;6.788;2023-07-31T11:23:11;6.00;;;3.53;;
9102;SDS011;4587;51.434;6.788;2023-07-31T11:25:37;6.23;;;3.67;;
9102;SDS011;4587;51.434;6.788;2023-07-31T11:28:14;5.97;;;3.80;;
9102;SDS011;4587;51.434;6.788;2023-07-31T11:30:41;4.33;;;3.30;;
9102;SDS011;4587;51.434;6.788;2023-07-31T11:33:08;5.40;;;3.00;;
9102;SDS011;4587;51.434;6.788;2023-07-31T11:35:45;5.50;;;3.73;;
9102;SDS011;4587;51.434;6.788;2023-07-31T11:38:20;5.90;;;3.60;;
9102;SDS011;4587;51.434;6.788;2023-07-31T11:40:48;7.60;;;3.27;;
9102;SDS011;4587;51.434;6.788;2023-07-31T11:43:13;4.03;;;3.10;;
9102;SDS011;4587;51.434;6.788;2023-07-31T11:45:42;5.70;;;3.60;;
9102;SDS011;4587;51.434;6.788;2023-07-31T11:48:17;4.47;;;3.07;;
9102;SDS011;4587;51.434;6.788;2023-07-31T11:50:55;3.37;;;2.40;;
9102;SDS011;4587;51.434;6.788;2023-07-31T11:53:34;5.50;;;2.93;;
9102;SDS011;4587;51.434;6.788;2023-07-31T11:56:07;4.60;;;2.70;;
9102;SDS011;4587;51.434;6.788;2023-07-31T11:58:36;5.80;;;2.70;;
9102;SDS011;4587;51.434;6.788;2023-07-31T12:01:03;6.03;;;2.97;;
9102;SDS011;4587;51.434;6.788;2023-07-31T12:03:29;3.70;;;2.67;;
9102;SDS011;4587;51.434;6.788;2023-07-31T12:05:56;4.13;;;2.70;;
9102;SDS011;4587;51.434;6.788;2023-07-31T12:08:23;3.53;;;2.60;;
9102;SDS011;4587;51.434;6.788;2023-07-31T12:10:50;5.77;;;3.00;;
9102;SDS011;4587;51.434;6.788;2023-07-31T12:13:20;4.37;;;2.80;;
9102;SDS011;4587;51.434;6.788;2023-07-31T12:15:54;3.87;;;2.50;;
9102;SDS011;4587;51.434;6.788;2023-07-31T12:18:22;3.50;;;2.30;;
9102;SDS011;4587;51.434;6.788;2023-07-31T12:20:53;5.03;;;2.53;;
9102;SDS011;4587;51.434;6.788;2023-07-31T12:23:30;4.07;;;2.73;;
9102;SDS011;4587;51.434;6.788;2023-07-31T12:28:28;5.07;;;2.63;;
9102;SDS011;4587;51.434;6.788;2023-07-31T12:30:56;4.87;;;2.50;;
9102;SDS011;4587;51.434;6.788;2023-07-31T12:33:30;3.37;;;2.50;;
9102;SDS011;4587;51.434;6.788;2023-07-31T12:35:57;4.63;;;2.67;;
9102;SDS011;4587;51.434;6.788;2023-07-31T12:38:25;4.07;;;2.10;;
9102;SDS011;4587;51.434;6.788;2023-07-31T12:40:51;3.47;;;2.00;;
9102;SDS011;4587;51.434;6.788;2023-07-31T12:43:16;4.50;;;2.30;;
9102;SDS011;4587;51.434;6.788;2023-07-31T12:45:42;2.40;;;2.10;;
9102;SDS011;4587;51.434;6.788;2023-07-31T12:48:07;3.70;;;2.07;;
9102;SDS011;4587;51.434;6.788;2023-07-31T12:50:33;4.27;;;2.27;;
9102;SDS011;4587;51.434;6.788;2023-07-31T12:53:01;2.73;;;2.13;;
9102;SDS011;4587;51.434;6.788;2023-07-31T12:55:28;3.60;;;2.43;;
9102;SDS011;4587;51.434;6.788;2023-07-31T12:57:55;3.10;;;2.17;;
9102;SDS011;4587;51.434;6.788;2023-07-31T13:00:20;4.23;;;2.63;;
9102;SDS011;4587;51.434;6.788;2023-07-31T13:02:46;4.47;;;3.30;;
9102;SDS011;4587;51.434;6.788;2023-07-31T13:05:12;4.53;;;3.30;;
9102;SDS011;4587;51.434;6.788;2023-07-31T13:07:38;5.10;;;3.40;;
9102;SDS011;4587;51.434;6.788;2023-07-31T13:10:04;6.10;;;3.10;;
9102;SDS011;4587;51.434;6.788;2023-07-31T13:12:31;4.70;;;3.03;;
9102;SDS011;4587;51.434;6.788;2023-07-31T13:14:56;4.63;;;3.20;;
9102;SDS011;4587;51.434;6.788;2023-07-31T13:17:22;4.97;;;3.30;;
9102;SDS011;4587;51.434;6.788;2023-07-31T13:19:48;6.13;;;4.00;;
9102;SDS011;4587;51.434;6.788;2023-07-31T13:22:13;6.87;;;3.53;;
9102;SDS011;4587;51.434;6.788;2023-07-31T13:24:39;6.43;;;4.23;;
9102;SDS011;4587;51.434;6.788;2023-07-31T13:27:04;7.57;;;4.57;;
9102;SDS011;4587;51.434;6.788;2023-07-31T13:29:30;6.37;;;4.37;;
9102;SDS011;4587;51.434;6.788;2023-07-31T13:31:57;6.47;;;4.60;;
9102;SDS011;4587;51.434;6.788;2023-07-31T13:34:22;7.33;;;4.30;;
9102;SDS011;4587;51.434;6.788;2023-07-31T13:36:48;9.57;;;4.20;;
9102;SDS011;4587;51.434;6.788;2023-07-31T13:39:14;8.47;;;4.77;;
9102;SDS011;4587;51.434;6.788;2023-07-31T13:41:39;5.37;;;4.13;;
9102;SDS011;4587;51.434;6.788;2023-07-31T13:44:05;4.97;;;3.70;;
9102;SDS011;4587;51.434;6.788;2023-07-31T13:46:30;6.13;;;3.70;;
9102;SDS011;4587;51.434;6.788;2023-07-31T13:48:57;4.37;;;3.27;;
9102;SDS011;4587;51.434;6.788;2023-07-31T13:51:24;4.90;;;3.37;;
9102;SDS011;4587;51.434;6.788;2023-07-31T13:53:50;5.63;;;3.60;;
9102;SDS011;4587;51.434;6.788;2023-07-31T13:56:15;5.53;;;3.57;;
9102;SDS011;4587;51.434;6.788;2023-07-31T13:58:41;5.83;;;3.70;;
9102;SDS011;4587;51.434;6.788;2023-07-31T14:01:06;5.90;;;4.00;;
9102;SDS011;4587;51.434;6.788;2023-07-31T14:03:32;5.70;;;4.00;;
9102;SDS011;4587;51.434;6.788;2023-07-31T14:05:57;4.73;;;3.63;;
9102;SDS011;4587;51.434;6.788;2023-07-31T14:08:23;10.43;;;4.50;;
9102;SDS011;4587;51.434;6.788;2023-07-31T14:10:49;5.03;;;4.00;;
9102;SDS011;4587;51.434;6.788;2023-07-31T14:13:14;8.63;;;4.67;;
9102;SDS011;4587;51.434;6.788;2023-07-31T14:15:43;8.27;;;4.70;;
9102;SDS011;4587;51.434;6.788;2023-07-31T14:18:09;7.53;;;4.70;;
9102;SDS011;4587;51.434;6.788;2023-07-31T14:20:34;7.87;;;4.63;;
9102;SDS011;4587;51.434;6.788;2023-07-31T14:23:00;6.23;;;4.50;;
9102;SDS011;4587;51.434;6.788;2023-07-31T14:25:27;5.57;;;3.90;;
9102;SDS011;4587;51.434;6.788;2023-07-31T14:27:52;5.50;;;3.80;;
9102;SDS011;4587;51.434;6.788;2023-07-31T14:30:18;5.67;;;3.80;;
9102;SDS011;4587;51.434;6.788;2023-07-31T14:32:44;9.00;;;3.77;;
9102;SDS011;4587;51.434;6.788;2023-07-31T14:35:09;4.87;;;3.30;;
9102;SDS011;4587;51.434;6.788;2023-07-31T14:37:39;7.90;;;4.43;;
9102;SDS011;4587;51.434;6.788;2023-07-31T14:40:05;6.37;;;3.80;;
9102;SDS011;4587;51.434;6.788;2023-07-31T14:42:32;4.63;;;3.20;;
9102;SDS011;4587;51.434;6.788;2023-07-31T14:44:58;7.80;;;3.67;;
9102;SDS011;4587;51.434;6.788;2023-07-31T14:47:24;5.00;;;3.40;;
9102;SDS011;4587;51.434;6.788;2023-07-31T14:49:49;5.40;;;3.43;;
9102;SDS011;4587;51.434;6.788;2023-07-31T14:52:15;4.73;;;3.80;;
9102;SDS011;4587;51.434;6.788;2023-07-31T14:54:41;5.40;;;3.50;;
9102;SDS011;4587;51.434;6.788;2023-07-31T14:57:06;6.63;;;4.00;;
9102;SDS011;4587;51.434;6.788;2023-07-31T14:59:33;5.87;;;3.60;;
9102;SDS011;4587;51.434;6.788;2023-07-31T15:01:59;6.50;;;3.70;;
9102;SDS011;4587;51.434;6.788;2023-07-31T15:04:24;7.20;;;4.03;;
9102;SDS011;4587;51.434;6.788;2023-07-31T15:06:51;4.33;;;3.47;;
9102;SDS011;4587;51.434;6.788;2023-07-31T15:09:17;4.63;;;3.70;;
9102;SDS011;4587;51.434;6.788;2023-07-31T15:11:43;8.03;;;3.80;;
9102;SDS011;4587;51.434;6.788;2023-07-31T15:14:08;6.50;;;3.80;;
9102;SDS011;4587;51.434;6.788;2023-07-31T15:16:34;4.83;;;3.90;;
9102;SDS011;4587;51.434;6.788;2023-07-31T15:19:00;6.70;;;3.60;;